Time;durP1;ratioP1;P1;durP2;ratioP2;P2;SDS_P1;SDS_P2;PMS_P1;PMS_P2;Temp;Humidity;BMP_temperature;BMP_pressure;BME280_temperature;BME280_humidity;BME280_pressure;Samples;Min_cycle;Max_cycle;Signal;HPM_P1;HPM_P2
2022/10/22 00:02:18;;;;;;;;;26.50;24.75;;;;;20.32;36.30;99617.66;5030153;28;8855;-83
2022/10/22 00:04:48;;;;;;;;;24.20;22.00;;;;;20.32;36.26;99628.25;4996863;28;9566;-83
2022/10/22 00:07:19;;;;;;;;;25.00;25.00;;;;;20.32;35.98;99633.56;5028511;28;8996;-81
2022/10/22 00:09:47;;;;;;;;;26.40;24.40;;;;;20.31;36.17;99634.47;5029031;28;8882;-83
2022/10/22 00:12:17;;;;;;;;;27.50;25.25;;;;;20.39;36.01;99636.81;5000582;28;8869;-83
2022/10/22 00:14:46;;;;;;;;;26.25;25.75;;;;;20.44;35.81;99634.84;5051475;28;8829;-82
2022/10/22 00:17:15;;;;;;;;;24.50;23.00;;;;;20.44;36.08;99633.06;5049619;28;8852;-81
2022/10/22 00:19:44;;;;;;;;;28.75;26.75;;;;;20.48;35.90;99628.50;5050080;28;9416;-82
2022/10/22 00:22:12;;;;;;;;;23.40;22.60;;;;;20.47;36.11;99628.56;5050097;28;8987;-82
2022/10/22 00:24:43;;;;;;;;;24.40;23.20;;;;;20.47;36.19;99620.59;5035958;28;8841;-82
2022/10/22 00:27:12;;;;;;;;;24.40;24.20;;;;;20.45;35.98;99626.84;5043138;28;8956;-81
2022/10/22 00:29:42;;;;;;;;;25.25;25.00;;;;;20.48;36.02;99607.31;5042374;28;8947;-81
2022/10/22 00:32:10;;;;;;;;;26.75;25.75;;;;;20.44;36.12;99606.56;5040998;28;8985;-84
2022/10/22 00:34:39;;;;;;;;;25.75;24.25;;;;;20.37;36.23;99612.16;5050530;28;8868;-84
2022/10/22 00:37:07;;;;;;;;;26.50;24.50;;;;;20.15;36.55;99605.06;5052463;28;8861;-81
2022/10/22 00:39:36;;;;;;;;;23.40;23.40;;;;;20.10;36.57;99607.03;5050188;28;9723;-84
2022/10/22 00:42:06;;;;;;;;;25.50;24.50;;;;;20.06;36.63;99610.72;5049895;28;9071;-82
2022/10/22 00:45:03;;;;;;;;;23.75;23.00;;;;;20.13;36.64;99617.50;4997157;28;8848;-83
2022/10/22 00:47:35;;;;;;;;;27.50;25.75;;;;;20.02;36.76;99617.91;5032147;28;8852;-81
2022/10/22 00:50:07;;;;;;;;;27.40;22.40;;;;;20.01;36.78;99616.19;5032071;28;8871;-83
2022/10/22 00:52:36;;;;;;;;;27.40;24.40;;;;;20.07;36.64;99625.66;5051082;28;8860;-81
2022/10/22 00:55:07;;;;;;;;;25.00;24.25;;;;;19.98;36.75;99626.03;5049483;28;8837;-81
2022/10/22 00:57:37;;;;;;;;;27.25;25.75;;;;;19.94;37.01;99627.91;5051645;28;8861;-82
2022/10/22 01:00:07;;;;;;;;;24.60;23.40;;;;;19.96;36.81;99631.41;5052033;28;8853;-83
2022/10/22 01:02:36;;;;;;;;;26.40;25.00;;;;;20.00;36.52;99630.34;5020091;28;8857;-80
2022/10/22 01:05:05;;;;;;;;;23.40;22.80;;;;;20.04;36.70;99637.25;5039984;28;8845;-80
2022/10/22 01:07:41;;;;;;;;;28.00;24.40;;;;;20.14;36.56;99631.63;5067154;28;8873;-81
2022/10/22 01:10:27;;;;;;;;;23.20;23.20;;;;;20.18;36.45;99631.41;5050985;28;8861;-82
2022/10/22 01:13:09;;;;;;;;;25.40;22.80;;;;;20.25;36.49;99622.31;5051963;28;8829;-82
2022/10/22 01:15:51;;;;;;;;;26.40;23.60;;;;;20.37;36.34;99625.41;5053225;28;8857;-81
2022/10/22 01:18:29;;;;;;;;;29.80;27.00;;;;;20.33;36.28;99618.50;5077175;28;8867;-82
2022/10/22 01:21:11;;;;;;;;;25.80;25.20;;;;;20.41;36.24;99611.13;4994310;28;8855;-80
2022/10/22 01:23:55;;;;;;;;;28.60;26.00;;;;;20.45;36.08;99602.13;5068592;28;8958;-84
2022/10/22 01:26:36;;;;;;;;;25.20;23.20;;;;;20.44;36.11;99603.91;5018776;28;9805;-84
2022/10/22 01:29:13;;;;;;;;;25.80;24.20;;;;;20.44;36.12;99601.25;5067698;28;9061;-82
2022/10/22 01:31:45;;;;;;;;;27.60;24.60;;;;;20.41;36.10;99597.88;5033910;28;8882;-83
2022/10/22 01:34:17;;;;;;;;;25.20;24.20;;;;;20.40;36.06;99590.88;5050355;28;8897;-81
2022/10/22 01:36:47;;;;;;;;;25.75;24.75;;;;;20.44;36.42;99587.16;5066360;28;8859;-82
2022/10/22 01:39:16;;;;;;;;;29.00;28.20;;;;;20.49;36.49;99585.19;5033509;28;8839;-84
2022/10/22 01:41:45;;;;;;;;;26.40;25.40;;;;;20.52;36.34;99587.69;5033514;28;8836;-81
2022/10/22 01:44:30;;;;;;;;;27.60;27.40;;;;;20.68;36.01;99581.81;5066494;28;8859;-83
2022/10/22 01:47:12;;;;;;;;;23.60;21.40;;;;;20.64;36.01;99579.28;5033055;28;9135;-81
2022/10/22 01:50:07;;;;;;;;;22.80;21.40;;;;;20.67;36.15;99578.28;5030433;28;8865;-81
2022/10/22 01:52:52;;;;;;;;;24.75;24.75;;;;;20.63;36.34;99572.25;5012955;28;8861;-81
2022/10/22 01:55:30;;;;;;;;;26.20;25.80;;;;;20.55;36.20;99574.34;5048045;28;8860;-81
2022/10/22 01:58:14;;;;;;;;;27.80;24.80;;;;;20.59;36.34;99575.09;5031170;28;8958;-81
2022/10/22 02:00:53;;;;;;;;;29.25;26.00;;;;;20.61;36.35;99581.22;5048875;28;8875;-82
2022/10/22 02:03:29;;;;;;;;;34.75;31.75;;;;;20.58;36.40;99576.84;5049381;28;8872;-82
2022/10/22 02:06:01;;;;;;;;;28.25;27.25;;;;;20.55;36.33;99576.13;5047767;28;8872;-81
2022/10/22 02:08:33;;;;;;;;;30.00;27.75;;;;;20.58;36.55;99570.69;5013464;28;8880;-79
2022/10/22 02:11:04;;;;;;;;;29.50;27.50;;;;;20.58;37.03;99574.19;5049818;28;8857;-82
2022/10/22 02:13:37;;;;;;;;;29.75;27.75;;;;;20.61;36.76;99581.22;5047959;28;8941;-84
2022/10/22 02:16:11;;;;;;;;;32.75;28.25;;;;;20.66;37.02;99573.06;5014198;28;8873;-80
2022/10/22 02:18:44;;;;;;;;;26.25;24.50;;;;;20.64;36.70;99575.75;5048846;28;9603;-81
2022/10/22 02:21:13;;;;;;;;;25.00;24.00;;;;;20.59;36.36;99577.72;5048896;28;9004;-80
2022/10/22 02:23:42;;;;;;;;;27.25;26.75;;;;;20.41;37.09;99589.94;5047572;28;8879;-82
2022/10/22 02:26:19;;;;;;;;;30.00;29.25;;;;;19.32;39.24;99612.53;4994195;28;8852;-82
2022/10/22 02:28:56;;;;;;;;;30.25;28.25;;;;;18.82;40.46;99608.94;5047745;28;8913;-81
2022/10/22 02:31:31;;;;;;;;;28.50;27.25;;;;;18.95;40.27;99612.03;5048016;28;8996;-80
2022/10/22 02:34:06;;;;;;;;;28.25;24.50;;;;;19.33;39.74;99606.34;5050357;28;8883;-81
2022/10/22 02:36:39;;;;;;;;;21.60;21.20;;;;;19.50;39.27;99608.38;5050067;28;8864;-80
2022/10/22 02:39:09;;;;;;;;;22.60;22.60;;;;;19.66;38.78;99607.75;5015503;28;8918;-84
2022/10/22 02:41:38;;;;;;;;;29.20;28.60;;;;;19.81;39.13;99614.31;4998356;28;8891;-80
2022/10/22 02:44:12;;;;;;;;;27.00;26.25;;;;;19.88;39.18;99619.34;5031361;28;8849;-83
2022/10/22 02:46:44;;;;;;;;;30.50;27.75;;;;;19.54;39.95;99620.56;5046025;28;8865;-82
2022/10/22 02:49:12;;;;;;;;;28.00;27.25;;;;;19.69;39.29;99612.06;4981854;28;8848;-82
2022/10/22 02:51:41;;;;;;;;;26.00;24.20;;;;;19.79;39.40;99597.63;5029291;28;8845;-81
2022/10/22 02:54:09;;;;;;;;;28.25;27.00;;;;;19.87;39.06;99592.03;5029317;28;8891;-81
2022/10/22 02:56:38;;;;;;;;;26.25;23.75;;;;;19.95;38.50;99592.59;5024199;28;8878;-82
2022/10/22 02:59:07;;;;;;;;;27.25;25.00;;;;;20.00;38.40;99588.00;5026777;28;8859;-80
2022/10/22 03:01:36;;;;;;;;;24.25;23.00;;;;;20.06;38.43;99593.06;5026116;28;8859;-80
2022/10/22 03:04:07;;;;;;;;;27.50;22.50;;;;;20.12;38.50;99588.44;5027459;28;8886;-81
2022/10/22 03:06:35;;;;;;;;;27.00;24.00;;;;;20.14;38.11;99587.44;4984545;28;8847;-80
2022/10/22 03:09:04;;;;;;;;;26.00;23.00;;;;;20.17;38.19;99586.47;5037113;28;8847;-81
2022/10/22 03:11:33;;;;;;;;;25.00;24.20;;;;;20.20;38.12;99594.28;5053129;28;8851;-82
2022/10/22 03:14:01;;;;;;;;;30.75;29.25;;;;;20.18;38.63;99598.78;5049791;28;8893;-81
2022/10/22 03:16:30;;;;;;;;;24.40;23.00;;;;;20.16;38.03;99592.69;5047179;28;9704;-81
2022/10/22 03:19:00;;;;;;;;;25.75;23.25;;;;;19.99;37.99;99601.28;5049134;28;8845;-82
2022/10/22 03:21:36;;;;;;;;;29.75;28.25;;;;;19.42;39.86;99609.50;5049454;28;8883;-81
2022/10/22 03:24:09;;;;;;;;;26.75;26.75;;;;;19.29;40.11;99603.78;5049256;28;8942;-80
2022/10/22 03:26:39;;;;;;;;;31.50;28.75;;;;;19.33;39.85;99607.19;4997951;28;8849;-82
2022/10/22 03:29:09;;;;;;;;;31.25;30.50;;;;;18.85;41.57;99605.34;5048168;28;9641;-82
2022/10/22 03:31:37;;;;;;;;;34.75;30.75;;;;;18.27;43.38;99619.47;5047625;28;8877;-82
2022/10/22 03:34:06;;;;;;;;;30.25;29.25;;;;;18.23;43.66;99623.13;5029585;28;8880;-82
2022/10/22 03:36:36;;;;;;;;;33.75;29.75;;;;;18.66;42.21;99610.34;5050414;28;8853;-83
2022/10/22 03:39:06;;;;;;;;;70.50;58.00;;;;;18.93;41.89;99605.94;5033135;28;8969;-82
2022/10/22 03:41:35;;;;;;;;;47.75;37.50;;;;;19.11;41.40;99603.56;5051761;28;10423;-83
2022/10/22 03:44:05;;;;;;;;;43.50;37.25;;;;;19.29;41.09;99598.50;5049521;28;9603;-82
2022/10/22 03:46:33;;;;;;;;;32.00;30.75;;;;;19.28;41.27;99595.91;5052117;28;8849;-84
2022/10/22 03:49:02;;;;;;;;;32.25;29.75;;;;;19.33;40.88;99608.97;5051209;28;8845;-83
2022/10/22 03:51:30;;;;;;;;;35.25;33.00;;;;;19.31;40.69;99614.31;5052191;28;9745;-83
2022/10/22 03:54:00;;;;;;;;;28.25;28.25;;;;;19.25;41.00;99610.09;5050276;28;8856;-81
2022/10/22 03:56:29;;;;;;;;;29.25;29.00;;;;;19.33;40.83;99601.91;5049639;28;8861;-80
2022/10/22 03:59:00;;;;;;;;;45.75;37.25;;;;;19.48;40.76;99597.84;5049938;28;8845;-81
2022/10/22 04:01:30;;;;;;;;;35.25;32.75;;;;;19.60;40.63;99597.41;5049237;28;8864;-80
2022/10/22 04:03:59;;;;;;;;;28.25;25.50;;;;;19.72;40.36;99595.22;5051762;28;8845;-80
2022/10/22 04:06:30;;;;;;;;;51.75;42.50;;;;;19.81;40.70;99594.91;5050944;28;8879;-80
2022/10/22 04:09:01;;;;;;;;;62.67;50.67;;;;;19.86;40.24;99587.66;5032454;28;8952;-83
2022/10/22 04:11:29;;;;;;;;;62.50;49.00;;;;;19.92;40.11;99591.84;5050188;28;8963;-83
2022/10/22 04:13:58;;;;;;;;;30.75;29.00;;;;;19.96;39.63;99577.56;5052213;28;8867;-83
2022/10/22 04:16:29;;;;;;;;;27.00;25.00;;;;;19.89;38.95;99573.47;5050898;28;8851;-82
2022/10/22 04:18:58;;;;;;;;;29.00;28.75;;;;;19.54;39.51;99581.75;5068733;28;8867;-82
2022/10/22 04:21:27;;;;;;;;;31.50;30.00;;;;;19.73;39.62;99578.47;5052295;28;8875;-83
2022/10/22 04:23:56;;;;;;;;;37.00;32.00;;;;;19.79;39.90;99580.88;5070448;28;9008;-82
2022/10/22 04:26:26;;;;;;;;;30.00;29.50;;;;;19.90;39.66;99569.88;5069136;28;9079;-84
2022/10/22 04:28:55;;;;;;;;;27.60;27.60;;;;;19.95;39.08;99570.56;5035485;28;8848;-82
2022/10/22 04:31:25;;;;;;;;;31.75;29.50;;;;;19.91;39.19;99571.63;5068514;28;8856;-84
2022/10/22 04:33:56;;;;;;;;;29.20;26.80;;;;;19.79;38.85;99580.88;5051099;28;8968;-83
2022/10/22 04:36:26;;;;;;;;;27.60;27.00;;;;;19.81;38.96;99574.63;5034942;28;8870;-82
2022/10/22 04:38:56;;;;;;;;;30.00;27.40;;;;;19.90;38.71;99580.47;5068778;28;8847;-83
2022/10/22 04:41:28;;;;;;;;;27.40;26.80;;;;;19.97;38.68;99581.97;5048698;28;8858;-84
2022/10/22 04:43:58;;;;;;;;;36.25;31.75;;;;;20.04;39.27;99581.66;5050862;28;8850;-83
2022/10/22 04:46:28;;;;;;;;;35.75;32.50;;;;;20.14;39.14;99576.00;5034736;28;9658;-82
2022/10/22 04:48:57;;;;;;;;;35.75;32.25;;;;;20.21;39.54;99567.75;5035135;28;8833;-82
2022/10/22 04:51:27;;;;;;;;;30.00;28.25;;;;;20.29;39.65;99572.75;5052720;28;8904;-82
2022/10/22 04:53:56;;;;;;;;;37.75;31.25;;;;;20.34;39.09;99567.25;5051740;28;8865;-83
2022/10/22 04:56:28;;;;;;;;;23.60;23.20;;;;;20.35;38.35;99566.34;5038237;28;8947;-82
2022/10/22 04:58:59;;;;;;;;;26.20;23.80;;;;;20.30;37.35;99570.94;5048690;28;8837;-83
2022/10/22 05:01:29;;;;;;;;;16.20;15.20;;;;;20.25;37.27;99560.56;5047702;28;8849;-80
2022/10/22 05:04:00;;;;;;;;;36.75;33.75;;;;;20.32;39.05;99572.63;5035933;28;8820;-81
2022/10/22 05:06:30;;;;;;;;;36.50;33.00;;;;;20.40;39.19;99577.63;5026320;28;8884;-81
2022/10/22 05:09:00;;;;;;;;;34.00;30.50;;;;;20.00;39.61;99577.41;5026649;28;8930;-82
2022/10/22 05:11:32;;;;;;;;;40.75;34.50;;;;;20.09;39.80;99572.66;5011009;28;8867;-81
2022/10/22 05:14:03;;;;;;;;;37.75;33.75;;;;;20.13;40.06;99572.50;5013234;28;8851;-80
2022/10/22 05:16:33;;;;;;;;;37.00;34.25;;;;;20.18;40.51;99565.22;5046343;28;8891;-82
2022/10/22 05:19:02;;;;;;;;;39.25;33.50;;;;;20.21;40.13;99567.75;5039137;28;9015;-83
2022/10/22 05:21:31;;;;;;;;;39.75;35.00;;;;;19.91;40.48;99566.31;5052024;28;8879;-82
2022/10/22 05:24:00;;;;;;;;;33.25;30.00;;;;;19.86;40.55;99571.78;5051760;28;8845;-82
2022/10/22 05:26:30;;;;;;;;;38.50;33.50;;;;;19.87;40.57;99573.50;5034488;28;8849;-80
2022/10/22 05:28:59;;;;;;;;;41.75;35.00;;;;;19.80;40.89;99578.16;5030662;28;8882;-81
2022/10/22 05:31:28;;;;;;;;;41.75;36.25;;;;;19.85;41.22;99581.50;5036710;28;8933;-80
2022/10/22 05:33:57;;;;;;;;;34.75;30.00;;;;;19.21;41.09;99586.50;5041169;28;8871;-80
2022/10/22 05:36:25;;;;;;;;;31.75;30.00;;;;;19.12;41.45;99592.09;5045166;28;8871;-80
2022/10/22 05:38:54;;;;;;;;;32.75;29.50;;;;;19.36;40.98;99595.66;5049658;28;8861;-79
2022/10/22 05:41:24;;;;;;;;;13.75;10.00;;;;;19.45;40.91;99593.53;5049752;28;8954;-80
2022/10/22 05:43:56;;;;;;;;;40.25;32.25;;;;;19.56;41.26;99595.78;5031173;28;8888;-79
2022/10/22 05:46:27;;;;;;;;;38.75;33.50;;;;;19.60;41.23;99589.47;5049453;28;8936;-80
2022/10/22 05:48:58;;;;;;;;;36.50;32.00;;;;;19.66;41.19;99594.53;5048069;28;8849;-80
2022/10/22 05:51:29;;;;;;;;;38.25;33.25;;;;;19.73;41.03;99596.97;5048162;28;8873;-79
2022/10/22 05:54:00;;;;;;;;;44.00;35.75;;;;;19.81;40.92;99589.59;5050035;28;8946;-79
2022/10/22 05:56:31;;;;;;;;;41.25;35.50;;;;;19.84;40.86;99584.19;5049509;28;8876;-84
2022/10/22 05:59:02;;;;;;;;;35.00;32.00;;;;;19.86;40.91;99587.66;5055614;28;8873;-84
2022/10/22 06:01:36;;;;;;;;;35.00;32.25;;;;;19.81;40.35;99595.78;5033329;28;8879;-82
2022/10/22 06:04:12;;;;;;;;;32.00;27.75;;;;;19.89;40.25;99597.28;5051005;28;8865;-83
2022/10/22 06:07:18;;;;;;;;;41.25;35.00;;;;;19.96;40.60;99599.63;4954620;28;8859;-86
2022/10/22 06:09:49;;;;;;;;;32.75;30.25;;;;;20.03;40.37;99600.25;5020291;28;8967;-84
2022/10/22 06:12:25;;;;;;;;;54.00;44.25;;;;;20.19;40.21;99608.47;4974904;28;8985;-89
2022/10/22 06:14:57;;;;;;;;;45.75;37.50;;;;;20.21;40.00;99599.53;5019035;28;8871;-84
2022/10/22 06:18:10;;;;;;;;;33.00;26.50;;;;;20.30;39.47;99606.22;5008235;28;9081;-83
2022/10/22 06:20:39;;;;;;;;;35.50;31.25;;;;;20.36;39.25;99600.72;4996627;28;8873;-85
2022/10/22 06:23:07;;;;;;;;;34.25;32.50;;;;;20.43;38.98;99596.03;4997890;28;8880;-83
2022/10/22 06:25:36;;;;;;;;;28.25;25.00;;;;;20.54;38.70;99604.41;4965774;28;8964;-83
2022/10/22 06:28:06;;;;;;;;;45.00;36.75;;;;;20.55;38.97;99598.19;5031703;28;8869;-83
2022/10/22 06:30:37;;;;;;;;;31.75;30.25;;;;;20.63;38.67;99600.56;4939062;28;8891;-86
2022/10/22 06:33:14;;;;;;;;;41.00;36.25;;;;;20.67;38.85;99599.50;4954470;28;9755;-82
2022/10/22 06:35:44;;;;;;;;;49.50;41.25;;;;;20.44;39.51;99605.69;4936235;28;8871;-87
2022/10/22 06:38:35;;;;;;;;;48.25;39.75;;;;;20.13;40.97;99600.75;4900236;29;8975;-88
2022/10/22 06:41:10;;;;;;;;;46.50;39.00;;;;;19.82;41.21;99618.66;4922350;29;9095;-88
2022/10/22 06:43:41;;;;;;;;;48.00;39.25;;;;;19.88;41.30;99622.00;4919418;29;8857;-90
2022/10/22 06:46:47;;;;;;;;;47.75;39.25;;;;;20.38;41.06;99624.50;4907565;29;8883;-87
2022/10/22 06:49:21;;;;;;;;;42.75;35.75;;;;;20.63;40.26;99622.59;4909340;29;8910;-89
2022/10/22 06:51:53;;;;;;;;;49.50;39.75;;;;;20.53;40.17;99626.53;4904198;29;9629;-90
2022/10/22 06:54:44;;;;;;;;;52.00;43.00;;;;;20.44;40.80;99626.91;4921389;29;8871;-88
2022/10/22 06:57:35;;;;;;;;;47.50;40.50;;;;;20.53;40.74;99633.59;4903928;29;8894;-88
2022/10/22 07:00:08;;;;;;;;;53.00;43.00;;;;;20.75;40.78;99630.97;4911064;29;8887;-88
2022/10/22 07:02:41;;;;;;;;;52.00;43.25;;;;;20.81;40.56;99630.72;4923770;29;8886;-89
2022/10/22 07:05:15;;;;;;;;;56.75;46.00;;;;;20.56;41.25;99638.78;4965904;28;8875;-87
2022/10/22 07:08:11;;;;;;;;;50.50;42.25;;;;;21.02;40.64;99635.16;4870500;29;8882;-87
2022/10/22 07:10:42;;;;;;;;;48.25;40.50;;;;;21.29;39.93;99629.59;4843197;29;8905;-87
2022/10/22 07:13:15;;;;;;;;;47.00;40.25;;;;;21.55;39.74;99623.16;4847709;29;8892;-86
2022/10/22 07:16:18;;;;;;;;;54.50;44.00;;;;;21.83;38.98;99619.25;4821050;29;8857;-91
2022/10/22 07:18:50;;;;;;;;;53.75;43.50;;;;;22.10;38.63;99613.63;4824615;29;8885;-74
2022/10/22 07:21:20;;;;;;;;;52.50;43.25;;;;;22.27;38.61;99613.72;4852433;29;8879;-73
2022/10/22 07:23:49;;;;;;;;;50.00;41.00;;;;;22.45;38.15;99627.88;4841151;29;8884;-73
2022/10/22 07:26:20;;;;;;;;;46.75;38.00;;;;;22.52;37.52;99639.09;4894736;29;8996;-80
2022/10/22 07:28:48;;;;;;;;;46.00;37.25;;;;;22.26;38.14;99643.84;4915023;29;8877;-78
2022/10/22 07:31:18;;;;;;;;;52.50;43.00;;;;;22.32;38.61;99634.72;4852648;29;8894;-79
2022/10/22 07:33:46;;;;;;;;;51.25;41.25;;;;;22.34;38.10;99627.53;4892870;29;8872;-68
2022/10/22 07:36:17;;;;;;;;;45.50;39.25;;;;;22.47;37.75;99636.66;4893047;29;8901;-77
2022/10/22 07:38:46;;;;;;;;;47.75;41.25;;;;;22.55;38.03;99629.19;4900300;28;8941;-79
2022/10/22 07:41:16;;;;;;;;;55.50;45.00;;;;;22.50;38.44;99640.97;4957190;28;8863;-77
2022/10/22 07:43:45;;;;;;;;;53.50;43.25;;;;;22.71;38.10;99641.72;5008514;28;9720;-80
2022/10/22 07:46:14;;;;;;;;;56.00;45.00;;;;;22.64;37.88;99635.81;5009829;28;9002;-78
2022/10/22 07:48:43;;;;;;;;;53.50;43.50;;;;;22.50;37.89;99633.84;5011836;28;8990;-78
2022/10/22 07:51:11;;;;;;;;;45.00;39.00;;;;;22.84;37.28;99634.00;5028654;28;8887;-78
2022/10/22 07:53:41;;;;;;;;;46.75;38.00;;;;;23.16;36.57;99643.06;5029199;28;8973;-78
2022/10/22 07:56:10;;;;;;;;;45.00;38.50;;;;;23.43;35.95;99642.56;5010775;28;8948;-79
2022/10/22 07:58:40;;;;;;;;;41.00;35.50;;;;;23.63;34.94;99636.19;5028646;28;8878;-80
2022/10/22 08:01:08;;;;;;;;;21.00;17.50;;;;;23.65;34.90;99631.66;4979631;28;8962;-77
2022/10/22 08:03:37;;;;;;;;;26.75;24.00;;;;;23.94;34.96;99627.44;5028552;28;9539;-77
2022/10/22 08:06:06;;;;;;;;;31.25;30.50;;;;;24.15;34.94;99627.22;5051039;28;8879;-77
2022/10/22 08:08:35;;;;;;;;;35.00;33.00;;;;;24.38;34.64;99625.91;5054144;28;8849;-78
2022/10/22 08:11:06;;;;;;;;;33.50;31.50;;;;;24.56;34.50;99616.91;5054562;28;8987;-79
2022/10/22 08:13:34;;;;;;;;;41.25;34.75;;;;;24.63;34.08;99612.97;5053675;28;8865;-78
2022/10/22 08:16:05;;;;;;;;;37.75;34.25;;;;;24.79;33.83;99612.91;5034537;28;8969;-77
2022/10/22 08:18:33;;;;;;;;;39.00;34.00;;;;;24.97;33.75;99615.44;5050006;28;8902;-77
2022/10/22 08:21:02;;;;;;;;;38.75;34.25;;;;;25.12;33.80;99611.00;5049558;28;8887;-78
2022/10/22 08:23:31;;;;;;;;;30.50;29.00;;;;;25.27;33.82;99605.66;5050279;28;8841;-78
2022/10/22 08:25:59;;;;;;;;;33.25;31.00;;;;;25.44;33.54;99601.97;5031572;28;8869;-77
2022/10/22 08:28:31;;;;;;;;;27.25;26.50;;;;;25.66;33.73;99598.81;5029937;28;8843;-77
2022/10/22 08:31:00;;;;;;;;;25.00;24.60;;;;;25.79;33.07;99595.38;5049056;28;9690;-77
2022/10/22 08:33:28;;;;;;;;;35.80;29.00;;;;;25.93;32.96;99599.88;5031025;28;8938;-77
2022/10/22 08:35:57;;;;;;;;;26.20;25.60;;;;;26.04;32.90;99600.91;5054986;28;8848;-77
2022/10/22 08:38:26;;;;;;;;;30.00;29.25;;;;;26.16;32.88;99601.06;5035967;28;8861;-77
2022/10/22 08:41:00;;;;;;;;;29.00;27.25;;;;;26.34;32.31;99610.59;5049301;28;8883;-77
2022/10/22 08:43:55;;;;;;;;;29.25;29.00;;;;;26.60;32.35;99597.38;5040849;28;8919;-77
2022/10/22 08:46:59;;;;;;;;;22.20;21.20;;;;;26.52;32.05;99608.53;5028500;28;8879;-76
2022/10/22 08:49:32;;;;;;;;;13.25;12.25;;;;;26.36;32.00;99600.66;5028909;28;8863;-76
2022/10/22 08:52:05;;;;;;;;;26.80;26.40;;;;;26.29;32.12;99593.13;4999169;28;8964;-79
2022/10/22 08:54:43;;;;;;;;;28.50;26.25;;;;;26.18;32.10;99588.47;5035847;28;8871;-77
2022/10/22 08:57:36;;;;;;;;;31.00;27.75;;;;;26.14;32.62;99582.44;5047876;28;9126;-77
2022/10/22 09:00:12;;;;;;;;;28.75;27.75;;;;;26.23;32.50;99586.38;5042037;28;9508;-77
2022/10/22 09:02:52;;;;;;;;;31.50;29.50;;;;;26.30;32.83;99579.66;5048933;28;8853;-78
2022/10/22 09:05:33;;;;;;;;;27.50;26.50;;;;;26.29;32.47;99587.78;5046145;28;8845;-79
2022/10/22 09:08:02;;;;;;;;;29.00;28.00;;;;;26.19;32.58;99590.19;5031369;28;8894;-76
2022/10/22 09:10:35;;;;;;;;;28.00;23.50;;;;;26.17;32.63;99592.13;5044904;28;8852;-77
2022/10/22 09:13:04;;;;;;;;;31.50;28.00;;;;;26.21;31.57;99598.97;5047450;28;8983;-79
2022/10/22 09:15:34;;;;;;;;;25.25;25.25;;;;;26.27;31.76;99601.25;5020524;28;8982;-80
2022/10/22 09:18:18;;;;;;;;;22.25;22.25;;;;;26.37;31.70;99604.16;5046226;28;8901;-80
2022/10/22 09:20:50;;;;;;;;;28.25;27.00;;;;;26.32;31.71;99595.63;5039424;28;8857;-77
2022/10/22 09:23:28;;;;;;;;;23.75;23.25;;;;;26.40;31.42;99582.59;5049834;28;8881;-78
2022/10/22 09:25:57;;;;;;;;;25.80;24.40;;;;;26.43;31.33;99587.75;5049108;28;8857;-77
2022/10/22 09:28:26;;;;;;;;;24.00;23.60;;;;;26.43;31.38;99595.78;5047495;28;8903;-77
2022/10/22 09:30:56;;;;;;;;;22.60;21.20;;;;;26.47;30.51;99593.75;5041389;28;8909;-79
2022/10/22 09:33:29;;;;;;;;;24.60;22.60;;;;;26.55;30.54;99600.28;5042698;28;8899;-80
2022/10/22 09:36:02;;;;;;;;;22.00;20.80;;;;;26.61;29.77;99604.41;5038641;28;8853;-79
2022/10/22 09:38:32;;;;;;;;;27.00;26.20;;;;;26.74;30.20;99609.81;5031780;28;8963;-80
2022/10/22 09:41:03;;;;;;;;;26.40;23.00;;;;;26.75;30.04;99615.06;5031565;28;8850;-78
2022/10/22 09:43:33;;;;;;;;;24.60;23.40;;;;;26.76;30.32;99608.75;5012220;28;9092;-75
2022/10/22 09:46:05;;;;;;;;;22.00;21.20;;;;;26.79;29.96;99600.53;5045319;28;8866;-76
2022/10/22 09:48:36;;;;;;;;;19.40;18.60;;;;;26.77;29.78;99610.47;5046318;28;8888;-79
2022/10/22 09:51:11;;;;;;;;;23.60;22.80;;;;;26.77;29.71;99602.44;5031963;28;8882;-81
2022/10/22 09:53:43;;;;;;;;;23.80;23.80;;;;;26.89;30.49;99607.94;5030630;28;8968;-81
2022/10/22 09:56:24;;;;;;;;;22.00;22.00;;;;;27.02;30.99;99616.84;5031375;28;8880;-81
2022/10/22 09:58:56;;;;;;;;;24.75;23.50;;;;;27.03;31.20;99607.84;4985242;28;8893;-82
2022/10/22 10:01:29;;;;;;;;;24.80;23.60;;;;;27.05;30.77;99608.59;4938592;28;8874;-81
2022/10/22 10:04:04;;;;;;;;;25.00;24.40;;;;;27.16;30.65;99607.88;4975569;28;9643;-80
2022/10/22 10:06:40;;;;;;;;;24.20;23.00;;;;;27.15;30.52;99601.66;4958098;28;8843;-83
2022/10/22 10:09:15;;;;;;;;;25.00;24.20;;;;;27.30;30.63;99590.91;4988339;28;8956;-80
2022/10/22 10:11:49;;;;;;;;;28.50;26.50;;;;;27.37;30.97;99602.88;4971338;28;8862;-82
2022/10/22 10:14:30;;;;;;;;;26.60;24.80;;;;;27.38;30.45;99599.25;4970648;28;9596;-79
2022/10/22 10:17:08;;;;;;;;;29.20;25.80;;;;;27.44;30.72;99596.13;4954511;28;9712;-81
2022/10/22 10:20:02;;;;;;;;;32.25;30.25;;;;;27.58;30.63;99593.34;4987609;28;8924;-81
2022/10/22 10:22:49;;;;;;;;;30.00;28.25;;;;;27.52;30.61;99588.41;4990793;28;8880;-79
2022/10/22 10:25:31;;;;;;;;;34.00;30.00;;;;;27.51;30.62;99580.50;5008597;28;8874;-79
2022/10/22 10:28:12;;;;;;;;;33.50;28.25;;;;;27.52;29.84;99580.38;5008585;28;8911;-79
2022/10/22 10:30:51;;;;;;;;;30.75;30.25;;;;;27.50;30.20;99579.63;5025163;28;8864;-79
2022/10/22 10:33:33;;;;;;;;;25.25;23.75;;;;;27.56;30.25;99576.53;4998160;28;8863;-78
2022/10/22 10:36:08;;;;;;;;;27.00;25.50;;;;;27.53;30.51;99573.22;5018760;28;8895;-79
2022/10/22 10:38:54;;;;;;;;;24.50;24.25;;;;;27.65;29.91;99572.34;5013044;28;8929;-80
2022/10/22 10:41:33;;;;;;;;;26.00;26.00;;;;;27.58;30.23;99577.28;5002047;28;8882;-82
2022/10/22 10:44:27;;;;;;;;;28.50;26.75;;;;;27.67;30.46;99574.91;5005280;28;8877;-80
2022/10/22 10:47:03;;;;;;;;;22.75;21.75;;;;;27.64;30.25;99564.41;5011361;28;8848;-78
2022/10/22 10:49:35;;;;;;;;;25.50;24.50;;;;;27.63;30.34;99562.69;4999116;28;8880;-78
2022/10/22 10:52:16;;;;;;;;;30.50;28.25;;;;;27.70;30.25;99558.63;4935891;28;10638;-80
2022/10/22 10:54:59;;;;;;;;;26.00;24.20;;;;;27.68;30.11;99566.78;5013975;28;8865;-81
2022/10/22 10:57:39;;;;;;;;;25.75;25.00;;;;;27.68;30.11;99566.78;5024532;28;8878;-79
2022/10/22 11:00:11;;;;;;;;;26.50;24.50;;;;;27.57;30.23;99559.47;5021145;28;8953;-81
2022/10/22 11:03:15;;;;;;;;;28.50;26.00;;;;;27.69;29.90;99565.78;5033410;28;8888;-80
2022/10/22 11:05:53;;;;;;;;;29.00;25.50;;;;;27.68;30.05;99557.88;5008613;28;8874;-80
2022/10/22 11:08:25;;;;;;;;;28.75;26.00;;;;;27.64;30.11;99564.41;5008880;28;8896;-80
2022/10/22 11:10:58;;;;;;;;;30.25;30.00;;;;;27.71;29.89;99560.31;5009290;28;8925;-80
2022/10/22 11:13:31;;;;;;;;;26.25;25.75;;;;;27.73;29.57;99548.53;5008470;28;8963;-79
2022/10/22 11:16:06;;;;;;;;;32.25;27.00;;;;;27.84;29.57;99549.59;5008107;28;8885;-80
2022/10/22 11:18:41;;;;;;;;;27.75;26.50;;;;;27.84;29.09;99547.75;5008899;28;8895;-79
2022/10/22 11:21:24;;;;;;;;;25.75;22.75;;;;;27.79;28.71;99548.09;5024402;28;8979;-79
2022/10/22 11:24:00;;;;;;;;;37.00;31.25;;;;;27.69;29.06;99541.66;5023124;28;8867;-79
2022/10/22 11:26:37;;;;;;;;;29.50;28.50;;;;;27.74;29.01;99536.00;5028636;28;8930;-81
2022/10/22 11:29:15;;;;;;;;;33.25;30.50;;;;;27.83;29.17;99531.78;5009048;28;8866;-80
2022/10/22 11:31:44;;;;;;;;;23.25;20.25;;;;;27.78;28.75;99538.31;5020052;28;8871;-81
2022/10/22 11:34:19;;;;;;;;;28.00;28.00;;;;;27.59;28.78;99536.13;5029499;28;8973;-80
2022/10/22 11:37:06;;;;;;;;;29.75;27.00;;;;;27.71;29.00;99530.84;5041239;28;8861;-80
2022/10/22 11:39:41;;;;;;;;;32.50;31.50;;;;;27.67;29.33;99537.41;5019507;28;8909;-81
2022/10/22 11:42:12;;;;;;;;;28.75;28.00;;;;;27.78;29.12;99532.13;5045809;28;9003;-82
2022/10/22 11:44:49;;;;;;;;;33.75;28.50;;;;;27.95;29.27;99534.47;5053893;28;8883;-81
2022/10/22 11:47:25;;;;;;;;;36.50;30.00;;;;;28.00;29.01;99531.47;5019288;28;9447;-81
2022/10/22 11:50:02;;;;;;;;;34.00;31.75;;;;;28.16;29.18;99523.97;5051387;28;8907;-81
2022/10/22 11:52:52;;;;;;;;;31.00;29.50;;;;;28.44;28.49;99529.13;5051961;28;8825;-81
2022/10/22 11:55:44;;;;;;;;;32.75;30.25;;;;;28.52;28.24;99519.53;5051841;28;11266;-79